Anangel Glory — SVBK7 — position and weather

sailwx.info

Track history (hours):
 
Tides and Currents Weather Stations Pressure Air Temp Water Temp Dewpoint Dewpoint Depression Visibility Wind Speed Wind Dir Waves Ship Positions

Anangel Glory

Last reported at 2017-Dec-31 18:31 UTC. Time now 2018-Jan-24 09:50 UTC.
Position N 07°12' W 013°49'.
Warning: this ship's position is 23 days out of date.

Length 292 m; draft 18.4 m.

Type: Cargo ship. MMSI: 241149000.

Date/timePositionNaut miles runAvg speedWind from/ knotsBaromVisibWave heightAir tempDewpointWater temp
2017-Dec-31 18:31N 07°12' W 013°49'011.1
2017-Dec-31 18:28N 07°12' W 013°50'911.1
2017-Dec-31 17:41N 07°20' W 013°54'211.0
2017-Dec-31 17:30N 07°22' W 013°55'510.9
2017-Dec-31 17:00N 07°26' W 013°58'3611.3
2017-Dec-31 13:51N 07°58' W 014°14'611.5
2017-Dec-31 13:19N 08°04' W 014°16'411.6
2017-Dec-31 13:00N 08°07' W 014°18'611.4
2017-Dec-31 12:30N 08°12' W 014°20'611.4
2017-Dec-31 12:00N 08°18' W 014°22'611.5
2017-Dec-31 11:30N 08°23' W 014°25'2011.4
2017-Dec-31 09:44N 08°41' W 014°33'311.1
2017-Dec-31 09:30N 08°44' W 014°34'611.1
2017-Dec-31 09:00N 08°49' W 014°36'611.3
2017-Dec-31 08:30N 08°54' W 014°38'611.8
2017-Dec-31 08:00N 08°60' W 014°40'611.7
2017-Dec-31 07:29N 09°06' W 014°42'511.3
2017-Dec-31 07:00N 09°10' W 014°44'611.0
2017-Dec-31 06:29N 09°16' W 014°46'610.8
2017-Dec-31 05:56N 09°21' W 014°48'410.3
2017-Dec-31 05:30N 09°26' W 014°49'510.0
2017-Dec-31 05:00N 09°31' W 014°50'5 9.8
2017-Dec-31 04:30N 09°35' W 014°50'5 9.7
2017-Dec-31 04:00N 09°40' W 014°50'5 9.8
2017-Dec-31 03:30N 09°45' W 014°51'5 9.8
2017-Dec-31 03:00N 09°50' W 014°50'510.0
2017-Dec-31 02:30N 09°55' W 014°50'510.4
2017-Dec-31 02:00N 10°00' W 014°50'710.8
2017-Dec-31 01:18N 10°08' W 014°50'1211.1
2017-Dec-31 00:12N 10°20' W 014°46'2 9.4
2017-Dec-31 00:00N 10°21' W 014°45'1 1.5
2017-Dec-30 23:20N 10°22' W 014°46'0 0.0
2017-Dec-30 21:20N 10°22' W 014°46'0 0.0
2017-Dec-30 20:59N 10°22' W 014°46'0 0.2
2017-Dec-30 20:23N 10°22' W 014°46'0 0.2
2017-Dec-30 19:05N 10°23' W 014°46'0 0.0
2017-Dec-30 18:59N 10°23' W 014°46'0 0.1
2017-Dec-30 13:41N 10°22' W 014°46'0 0.2
2017-Dec-30 13:11N 10°22' W 014°46'0 0.0
2017-Dec-30 11:41N 10°22' W 014°46'0 0.0
2017-Dec-29 20:02N 10°22' W 014°46'0 0.3
2017-Dec-29 19:56N 10°22' W 014°46'0 0.2
2017-Dec-29 18:44N 10°23' W 014°46'0 0.0
2017-Dec-29 18:29N 10°23' W 014°46'0 0.0
2017-Dec-29 17:50N 10°23' W 014°46'0 0.0
2017-Dec-29 17:23N 10°23' W 014°46'0 0.0
2017-Dec-29 16:59N 10°23' W 014°46'0 0.0
2017-Dec-29 16:08N 10°23' W 014°46'0 0.0
2017-Dec-29 15:56N 10°23' W 014°46'0 0.0
2017-Dec-29 15:29N 10°23' W 014°46'0 0.0
2017-Dec-29 14:59N 10°23' W 014°46'0 0.0
2017-Dec-29 14:29N 10°23' W 014°46'0 0.0
2017-Dec-29 13:50N 10°23' W 014°46'0 0.0
2017-Dec-29 13:29N 10°23' W 014°46'0 0.0
2017-Dec-29 12:59N 10°23' W 014°46'0 0.1
2017-Dec-29 12:29N 10°23' W 014°46'0 0.4
2017-Dec-29 11:59N 10°22' W 014°46'0 0.2
2017-Dec-29 11:26N 10°22' W 014°46'0 0.1
2017-Dec-29 10:59N 10°22' W 014°46'0 0.0
2017-Dec-28 23:35N 10°22' W 014°46'0 0.1
2017-Dec-28 23:29N 10°22' W 014°46'0 0.1
2017-Dec-28 22:59N 10°22' W 014°46'0 0.0
2017-Dec-28 22:05N 10°22' W 014°46'0 0.1
2017-Dec-28 21:59N 10°22' W 014°46'0 0.1
2017-Dec-28 21:29N 10°22' W 014°46'0 0.0
2017-Dec-28 20:56N 10°22' W 014°46'0 0.0
2017-Dec-27 19:59N 10°22' W 014°46'0 0.0
2017-Dec-27 19:26N 10°22' W 014°46'0 0.0
2017-Dec-27 18:59N 10°22' W 014°46'0 0.1
2017-Dec-27 16:26N 10°23' W 014°46'0 0.1
2017-Dec-27 15:56N 10°23' W 014°46'0 0.0
2017-Dec-27 14:41N 10°23' W 014°46'0 0.0
2017-Dec-27 14:23N 10°23' W 014°46'0 0.0
2017-Dec-27 13:44N 10°23' W 014°46'0 0.0
2017-Dec-27 13:29N 10°23' W 014°46'0 0.0
2017-Dec-27 12:44N 10°23' W 014°46'0 0.0
2017-Dec-27 12:29N 10°23' W 014°46'0 0.0
2017-Dec-27 11:29N 10°23' W 014°46'0 0.1
2017-Dec-27 10:56N 10°23' W 014°46'0 0.1
2017-Dec-27 07:26N 10°22' W 014°46'0 0.0
2017-Dec-27 06:44N 10°22' W 014°46'0 0.1
2017-Dec-27 06:26N 10°22' W 014°46'0 0.1
2017-Dec-27 04:26N 10°22' W 014°45'0 0.1
2017-Dec-27 03:59N 10°22' W 014°45'0 0.2
2017-Dec-27 03:26N 10°22' W 014°45'0 0.2
2017-Dec-27 02:59N 10°22' W 014°45'0 0.1
2017-Dec-27 02:29N 10°23' W 014°46'0 0.1
2017-Dec-27 01:59N 10°23' W 014°46'0 0.0
2017-Dec-27 01:29N 10°23' W 014°46'0 0.0
2017-Dec-27 00:59N 10°23' W 014°46'0 0.0
2017-Dec-27 00:29N 10°23' W 014°46'0 0.0
2017-Dec-26 23:44N 10°23' W 014°46'0 0.0
2017-Dec-26 23:08N 10°23' W 014°46'0 0.0
2017-Dec-26 22:59N 10°23' W 014°46'0 0.0
2017-Dec-26 22:29N 10°23' W 014°45'0 0.1
2017-Dec-26 20:38N 10°22' W 014°45'0 0.1
2017-Dec-26 20:29N 10°22' W 014°46'0 0.1
2017-Dec-26 16:08N 10°22' W 014°46'0 0.1
2017-Dec-26 15:56N 10°23' W 014°46'0 0.1
2017-Dec-26 15:29N 10°23' W 014°46'0 0.0
2017-Dec-26 14:02N 10°23' W 014°46'0 0.1
2017-Dec-26 13:59N 10°23' W 014°46'0 0.0
2017-Dec-26 13:29N 10°23' W 014°46'0 0.0
2017-Dec-26 12:59N 10°23' W 014°46'0 0.0
2017-Dec-26 12:29N 10°23' W 014°46'0 0.0
2017-Dec-26 11:56N 10°23' W 014°46'0 0.0
2017-Dec-26 10:44N 10°23' W 014°46'0 0.0
2017-Dec-26 10:29N 10°23' W 014°46'0 0.0
2017-Dec-26 09:56N 10°23' W 014°46'0 0.1
2017-Dec-26 07:08N 10°22' W 014°45'0 0.7
2017-Dec-26 06:45N 10°23' W 014°46'1 4.5
2017-Dec-26 06:31N 10°24' W 014°46'3 6.6
2017-Dec-26 06:00N 10°27' W 014°46'3 6.2
2017-Dec-26 05:30N 10°30' W 014°45'1 1.0
2017-Dec-26 04:43N 10°31' W 014°45'0 0.0
2017-Dec-26 04:28N 10°31' W 014°45'0 0.0
2017-Dec-26 03:58N 10°31' W 014°45'0 0.5
2017-Dec-26 03:22N 10°31' W 014°45'0 0.1
2017-Dec-26 02:58N 10°31' W 014°45'0 0.0
2017-Dec-26 02:28N 10°31' W 014°45'0 0.1
2017-Dec-26 01:58N 10°31' W 014°45'0 0.0
2017-Dec-26 01:25N 10°31' W 014°45'0 0.0
2017-Dec-26 00:58N 10°31' W 014°45'0 0.0
2017-Dec-26 00:28N 10°31' W 014°45'0 0.0
2017-Dec-25 23:58N 10°31' W 014°45'0 0.0
2017-Dec-25 23:28N 10°31' W 014°45'0 0.0
2017-Dec-25 22:58N 10°31' W 014°45'0 0.0
2017-Dec-25 22:28N 10°31' W 014°45'0 0.0
2017-Dec-25 21:58N 10°31' W 014°45'0 0.1
2017-Dec-25 21:28N 10°31' W 014°45'0 0.5
2017-Dec-25 20:58N 10°31' W 014°45'0 0.2
2017-Dec-25 20:28N 10°31' W 014°45'0 0.0
2017-Dec-25 19:55N 10°31' W 014°45'0 0.0
2017-Dec-25 19:22N 10°31' W 014°45'0 0.0
2017-Dec-25 18:58N 10°31' W 014°45'0 0.1
2017-Dec-25 18:28N 10°31' W 014°45'  
Track history (hours):
 
Tides and Currents Weather Stations Pressure Air Temp Water Temp Dewpoint Dewpoint Depression Visibility Wind Speed Wind Dir Waves Ship Positions

Anangel Glory

Last reported at 2017-Dec-31 18:31 UTC. Time now 2018-Jan-24 09:50 UTC.
Position N 07°12' W 013°49'.
Warning: this ship's position is 23 days out of date.

Length 292 m; draft 18.4 m.

Type: Cargo ship. MMSI: 241149000.

Date/timePositionNaut miles runAvg speedWind from/ knotsBaromVisibWave heightAir tempDewpointWater temp
2017-Dec-31 18:31N 07°12' W 013°49'011.1
2017-Dec-31 18:28N 07°12' W 013°50'911.1
2017-Dec-31 17:41N 07°20' W 013°54'211.0
2017-Dec-31 17:30N 07°22' W 013°55'510.9
2017-Dec-31 17:00N 07°26' W 013°58'3611.3
2017-Dec-31 13:51N 07°58' W 014°14'611.5
2017-Dec-31 13:19N 08°04' W 014°16'411.6
2017-Dec-31 13:00N 08°07' W 014°18'611.4
2017-Dec-31 12:30N 08°12' W 014°20'611.4
2017-Dec-31 12:00N 08°18' W 014°22'611.5
2017-Dec-31 11:30N 08°23' W 014°25'2011.4
2017-Dec-31 09:44N 08°41' W 014°33'311.1
2017-Dec-31 09:30N 08°44' W 014°34'611.1
2017-Dec-31 09:00N 08°49' W 014°36'611.3
2017-Dec-31 08:30N 08°54' W 014°38'611.8
2017-Dec-31 08:00N 08°60' W 014°40'611.7
2017-Dec-31 07:29N 09°06' W 014°42'511.3
2017-Dec-31 07:00N 09°10' W 014°44'611.0
2017-Dec-31 06:29N 09°16' W 014°46'610.8
2017-Dec-31 05:56N 09°21' W 014°48'410.3
2017-Dec-31 05:30N 09°26' W 014°49'510.0
2017-Dec-31 05:00N 09°31' W 014°50'5 9.8
2017-Dec-31 04:30N 09°35' W 014°50'5 9.7
2017-Dec-31 04:00N 09°40' W 014°50'5 9.8
2017-Dec-31 03:30N 09°45' W 014°51'5 9.8
2017-Dec-31 03:00N 09°50' W 014°50'510.0
2017-Dec-31 02:30N 09°55' W 014°50'510.4
2017-Dec-31 02:00N 10°00' W 014°50'710.8
2017-Dec-31 01:18N 10°08' W 014°50'1211.1
2017-Dec-31 00:12N 10°20' W 014°46'2 9.4
2017-Dec-31 00:00N 10°21' W 014°45'1 1.5
2017-Dec-30 23:20N 10°22' W 014°46'0 0.0
2017-Dec-30 21:20N 10°22' W 014°46'0 0.0
2017-Dec-30 20:59N 10°22' W 014°46'0 0.2
2017-Dec-30 20:23N 10°22' W 014°46'0 0.2
2017-Dec-30 19:05N 10°23' W 014°46'0 0.0
2017-Dec-30 18:59N 10°23' W 014°46'0 0.1
2017-Dec-30 13:41N 10°22' W 014°46'0 0.2
2017-Dec-30 13:11N 10°22' W 014°46'0 0.0
2017-Dec-30 11:41N 10°22' W 014°46'0 0.0
2017-Dec-29 20:02N 10°22' W 014°46'0 0.3
2017-Dec-29 19:56N 10°22' W 014°46'0 0.2
2017-Dec-29 18:44N 10°23' W 014°46'0 0.0
2017-Dec-29 18:29N 10°23' W 014°46'0 0.0
2017-Dec-29 17:50N 10°23' W 014°46'0 0.0
2017-Dec-29 17:23N 10°23' W 014°46'0 0.0
2017-Dec-29 16:59N 10°23' W 014°46'0 0.0
2017-Dec-29 16:08N 10°23' W 014°46'0 0.0
2017-Dec-29 15:56N 10°23' W 014°46'0 0.0
2017-Dec-29 15:29N 10°23' W 014°46'0 0.0
2017-Dec-29 14:59N 10°23' W 014°46'0 0.0
2017-Dec-29 14:29N 10°23' W 014°46'0 0.0
2017-Dec-29 13:50N 10°23' W 014°46'0 0.0
2017-Dec-29 13:29N 10°23' W 014°46'0 0.0
2017-Dec-29 12:59N 10°23' W 014°46'0 0.1
2017-Dec-29 12:29N 10°23' W 014°46'0 0.4
2017-Dec-29 11:59N 10°22' W 014°46'0 0.2
2017-Dec-29 11:26N 10°22' W 014°46'0 0.1
2017-Dec-29 10:59N 10°22' W 014°46'0 0.0
2017-Dec-28 23:35N 10°22' W 014°46'0 0.1
2017-Dec-28 23:29N 10°22' W 014°46'0 0.1
2017-Dec-28 22:59N 10°22' W 014°46'0 0.0
2017-Dec-28 22:05N 10°22' W 014°46'0 0.1
2017-Dec-28 21:59N 10°22' W 014°46'0 0.1
2017-Dec-28 21:29N 10°22' W 014°46'0 0.0
2017-Dec-28 20:56N 10°22' W 014°46'0 0.0
2017-Dec-27 19:59N 10°22' W 014°46'0 0.0
2017-Dec-27 19:26N 10°22' W 014°46'0 0.0
2017-Dec-27 18:59N 10°22' W 014°46'0 0.1
2017-Dec-27 16:26N 10°23' W 014°46'0 0.1
2017-Dec-27 15:56N 10°23' W 014°46'0 0.0
2017-Dec-27 14:41N 10°23' W 014°46'0 0.0
2017-Dec-27 14:23N 10°23' W 014°46'0 0.0
2017-Dec-27 13:44N 10°23' W 014°46'0 0.0
2017-Dec-27 13:29N 10°23' W 014°46'0 0.0
2017-Dec-27 12:44N 10°23' W 014°46'0 0.0
2017-Dec-27 12:29N 10°23' W 014°46'0 0.0
2017-Dec-27 11:29N 10°23' W 014°46'0 0.1
2017-Dec-27 10:56N 10°23' W 014°46'0 0.1
2017-Dec-27 07:26N 10°22' W 014°46'0 0.0
2017-Dec-27 06:44N 10°22' W 014°46'0 0.1
2017-Dec-27 06:26N 10°22' W 014°46'0 0.1
2017-Dec-27 04:26N 10°22' W 014°45'0 0.1
2017-Dec-27 03:59N 10°22' W 014°45'0 0.2
2017-Dec-27 03:26N 10°22' W 014°45'0 0.2
2017-Dec-27 02:59N 10°22' W 014°45'0 0.1
2017-Dec-27 02:29N 10°23' W 014°46'0 0.1
2017-Dec-27 01:59N 10°23' W 014°46'0 0.0
2017-Dec-27 01:29N 10°23' W 014°46'0 0.0
2017-Dec-27 00:59N 10°23' W 014°46'0 0.0
2017-Dec-27 00:29N 10°23' W 014°46'0 0.0
2017-Dec-26 23:44N 10°23' W 014°46'0 0.0
2017-Dec-26 23:08N 10°23' W 014°46'0 0.0
2017-Dec-26 22:59N 10°23' W 014°46'0 0.0
2017-Dec-26 22:29N 10°23' W 014°45'0 0.1
2017-Dec-26 20:38N 10°22' W 014°45'0 0.1
2017-Dec-26 20:29N 10°22' W 014°46'0 0.1
2017-Dec-26 16:08N 10°22' W 014°46'0 0.1
2017-Dec-26 15:56N 10°23' W 014°46'0 0.1
2017-Dec-26 15:29N 10°23' W 014°46'0 0.0
2017-Dec-26 14:02N 10°23' W 014°46'0 0.1
2017-Dec-26 13:59N 10°23' W 014°46'0 0.0
2017-Dec-26 13:29N 10°23' W 014°46'0 0.0
2017-Dec-26 12:59N 10°23' W 014°46'0 0.0
2017-Dec-26 12:29N 10°23' W 014°46'0 0.0
2017-Dec-26 11:56N 10°23' W 014°46'0 0.0
2017-Dec-26 10:44N 10°23' W 014°46'0 0.0
2017-Dec-26 10:29N 10°23' W 014°46'0 0.0
2017-Dec-26 09:56N 10°23' W 014°46'0 0.1
2017-Dec-26 07:08N 10°22' W 014°45'0 0.7
2017-Dec-26 06:45N 10°23' W 014°46'1 4.5
2017-Dec-26 06:31N 10°24' W 014°46'3 6.6
2017-Dec-26 06:00N 10°27' W 014°46'3 6.2
2017-Dec-26 05:30N 10°30' W 014°45'1 1.0
2017-Dec-26 04:43N 10°31' W 014°45'0 0.0
2017-Dec-26 04:28N 10°31' W 014°45'0 0.0
2017-Dec-26 03:58N 10°31' W 014°45'0 0.5
2017-Dec-26 03:22N 10°31' W 014°45'0 0.1
2017-Dec-26 02:58N 10°31' W 014°45'0 0.0
2017-Dec-26 02:28N 10°31' W 014°45'0 0.1
2017-Dec-26 01:58N 10°31' W 014°45'0 0.0
2017-Dec-26 01:25N 10°31' W 014°45'0 0.0
2017-Dec-26 00:58N 10°31' W 014°45'0 0.0
2017-Dec-26 00:28N 10°31' W 014°45'0 0.0
2017-Dec-25 23:58N 10°31' W 014°45'0 0.0
2017-Dec-25 23:28N 10°31' W 014°45'0 0.0
2017-Dec-25 22:58N 10°31' W 014°45'0 0.0
2017-Dec-25 22:28N 10°31' W 014°45'0 0.0
2017-Dec-25 21:58N 10°31' W 014°45'0 0.1
2017-Dec-25 21:28N 10°31' W 014°45'0 0.5
2017-Dec-25 20:58N 10°31' W 014°45'0 0.2
2017-Dec-25 20:28N 10°31' W 014°45'0 0.0
2017-Dec-25 19:55N 10°31' W 014°45'0 0.0
2017-Dec-25 19:22N 10°31' W 014°45'0 0.0
2017-Dec-25 18:58N 10°31' W 014°45'0 0.1
2017-Dec-25 18:28N 10°31' W 014°45'  

Dump ship's entire track history